Time;durP1;ratioP1;P1;durP2;ratioP2;P2;SDS_P1;SDS_P2;PMS_P1;PMS_P2;Temp;Humidity;BMP_temperature;BMP_pressure;BME280_temperature;BME280_humidity;BME280_pressure;Samples;Min_cycle;Max_cycle;Signal;HPM_P1;HPM_P2
2021/08/24 00:09:15;;;;;;;1.45;0.50;;;15.80;99.90;;;;;;20462771;28;20041;-44
2021/08/24 00:19:16;;;;;;;2.55;0.70;;;15.80;99.90;;;;;;20464671;28;20504;-44
2021/08/24 00:29:17;;;;;;;1.15;0.50;;;15.70;99.90;;;;;;20475707;28;20123;-44
2021/08/24 00:39:18;;;;;;;1.50;0.55;;;15.50;99.90;;;;;;20511861;28;20480;-45
2021/08/24 00:49:26;;;;;;;3.85;0.98;;;15.50;99.90;;;;;;20545147;28;20376;-44
2021/08/24 00:59:27;;;;;;;4.05;0.70;;;15.30;99.90;;;;;;20527978;28;20081;-44
2021/08/24 01:09:54;;;;;;;3.13;0.95;;;15.20;99.90;;;;;;20521703;28;20376;-44
2021/08/24 01:20:17;;;;;;;2.53;0.70;;;15.00;99.90;;;;;;20531099;28;20503;-44
2021/08/24 01:30:50;;;;;;;1.25;0.60;;;14.90;99.90;;;;;;20517795;28;20197;-44
2021/08/24 01:41:06;;;;;;;1.98;0.70;;;14.90;99.90;;;;;;20532397;28;20042;-44
2021/08/24 01:51:19;;;;;;;1.25;0.60;;;14.90;99.90;;;;;;20526346;28;20682;-44
2021/08/24 02:01:28;;;;;;;1.90;0.80;;;14.80;99.90;;;;;;20525681;28;21402;-44
2021/08/24 02:11:32;;;;;;;2.88;1.00;;;14.70;99.90;;;;;;20543327;28;20039;-44
2021/08/24 02:21:44;;;;;;;2.38;1.23;;;14.70;99.90;;;;;;20532706;28;20047;-44
2021/08/24 02:32:04;;;;;;;2.20;0.93;;;14.70;99.90;;;;;;20533148;28;20038;-45
2021/08/24 02:42:15;;;;;;;3.05;1.20;;;14.80;99.90;;;;;;20471741;28;20047;-44
2021/08/24 02:52:16;;;;;;;6.10;1.23;;;14.80;99.90;;;;;;20463014;28;20503;-45
2021/08/24 03:02:18;;;;;;;3.13;1.20;;;14.80;99.90;;;;;;20451855;28;20074;-44
2021/08/24 03:12:42;;;;;;;4.68;1.60;;;14.90;99.90;;;;;;20469402;28;22226;-44
2021/08/24 03:22:45;;;;;;;3.10;1.33;;;14.90;99.90;;;;;;20455504;28;20224;-44
2021/08/24 03:32:47;;;;;;;1.92;0.95;;;14.90;99.90;;;;;;20456893;28;20042;-44
2021/08/24 03:42:49;;;;;;;3.05;1.50;;;14.90;99.90;;;;;;20526103;28;20273;-44
2021/08/24 03:52:50;;;;;;;2.80;1.05;;;14.90;99.90;;;;;;20513026;28;20035;-44
2021/08/24 04:02:51;;;;;;;3.85;0.98;;;15.00;99.90;;;;;;20525908;28;20045;-44
2021/08/24 04:12:52;;;;;;;2.60;1.00;;;15.00;99.90;;;;;;20522412;28;20050;-44
2021/08/24 04:22:53;;;;;;;2.40;0.88;;;15.00;99.90;;;;;;20511237;28;20046;-44
2021/08/24 04:32:54;;;;;;;3.20;0.70;;;15.00;99.90;;;;;;20523700;28;20051;-44
2021/08/24 04:42:55;;;;;;;3.85;1.13;;;15.00;99.90;;;;;;20524098;28;20499;-44
2021/08/24 04:52:56;;;;;;;3.00;1.23;;;15.00;99.90;;;;;;20502627;28;20054;-44
2021/08/24 05:02:58;;;;;;;3.92;1.30;;;15.10;99.90;;;;;;20519012;28;20488;-44
2021/08/24 05:13:02;;;;;;;3.47;1.20;;;15.20;99.90;;;;;;20529151;28;20051;-44
2021/08/24 05:23:03;;;;;;;3.08;1.08;;;15.30;99.90;;;;;;20526245;28;20465;-44
2021/08/24 05:33:05;;;;;;;2.90;1.30;;;15.30;99.90;;;;;;20524062;28;20067;-44
2021/08/24 05:43:07;;;;;;;2.60;1.25;;;15.40;99.90;;;;;;20519877;28;20054;-44
2021/08/24 05:53:08;;;;;;;4.03;1.52;;;15.60;99.90;;;;;;20532257;28;20051;-44
2021/08/24 06:03:09;;;;;;;3.40;1.05;;;15.70;99.90;;;;;;20500112;28;20034;-45
2021/08/24 06:13:10;;;;;;;2.70;1.05;;;16.00;99.90;;;;;;20525847;28;20068;-44
2021/08/24 06:23:11;;;;;;;3.20;1.17;;;16.20;99.90;;;;;;20502668;28;20269;-44
2021/08/24 06:33:13;;;;;;;5.82;2.22;;;16.40;99.90;;;;;;20497666;28;20054;-44
2021/08/24 06:43:15;;;;;;;4.00;1.48;;;16.50;99.90;;;;;;20425465;28;20048;-44
2021/08/24 06:53:17;;;;;;;2.03;1.23;;;16.80;99.90;;;;;;20441183;28;20381;-44
2021/08/24 07:03:18;;;;;;;2.28;1.10;;;16.90;99.90;;;;;;20425960;28;20372;-44
2021/08/24 07:13:20;;;;;;;3.35;1.00;;;16.90;99.90;;;;;;20464257;28;20499;-44
2021/08/24 07:23:21;;;;;;;2.88;1.02;;;17.00;99.90;;;;;;20467581;28;20049;-44
2021/08/24 07:33:22;;;;;;;8.38;1.15;;;17.30;99.90;;;;;;20464838;28;20054;-44
2021/08/24 07:43:23;;;;;;;2.45;1.10;;;17.50;99.90;;;;;;20486312;28;20038;-44
2021/08/24 07:53:26;;;;;;;3.08;0.93;;;17.70;99.90;;;;;;20479861;28;20407;-44
2021/08/24 08:03:27;;;;;;;2.35;1.00;;;17.80;99.90;;;;;;20482595;28;20039;-44
2021/08/24 08:13:29;;;;;;;4.32;0.70;;;17.80;99.90;;;;;;20476022;28;20050;-44
2021/08/24 08:23:30;;;;;;;7.35;1.05;;;18.00;99.90;;;;;;20469363;28;20043;-44
2021/08/24 08:33:33;;;;;;;2.65;0.85;;;18.20;99.90;;;;;;20487395;28;20290;-44
2021/08/24 08:43:53;;;;;;;1.73;0.80;;;18.60;99.90;;;;;;20473652;28;20043;-44
2021/08/24 08:54:07;;;;;;;3.40;0.70;;;18.80;99.90;;;;;;20493920;28;20039;-44
2021/08/24 09:04:36;;;;;;;1.27;0.68;;;19.00;99.90;;;;;;20487782;28;20043;-45
2021/08/24 09:14:45;;;;;;;1.90;0.60;;;19.30;99.90;;;;;;20497815;28;20491;-44
2021/08/24 09:24:47;;;;;;;1.55;0.65;;;19.50;99.90;;;;;;20485567;28;20046;-45
2021/08/24 09:35:05;;;;;;;1.73;0.70;;;19.90;99.90;;;;;;20491700;28;20047;-45
2021/08/24 09:45:18;;;;;;;2.72;1.00;;;20.00;99.90;;;;;;20498009;28;20047;-45
2021/08/24 09:55:27;;;;;;;1.40;0.68;;;20.10;99.90;;;;;;20494867;28;21546;-45
2021/08/24 10:05:28;;;;;;;1.75;0.65;;;20.20;99.90;;;;;;20499707;28;20527;-44
2021/08/24 10:15:31;;;;;;;2.00;0.75;;;20.00;99.90;;;;;;20474085;28;20503;-44
2021/08/24 10:25:48;;;;;;;1.48;0.75;;;20.20;99.90;;;;;;20476590;28;20043;-45
2021/08/24 10:35:57;;;;;;;2.67;0.90;;;20.20;99.90;;;;;;20499315;28;20046;-45
2021/08/24 10:46:04;;;;;;;3.78;0.75;;;20.30;99.90;;;;;;20538534;28;20043;-45
2021/08/24 10:56:16;;;;;;;1.43;0.80;;;20.80;99.90;;;;;;20506300;28;20050;-45
2021/08/24 11:06:35;;;;;;;1.67;1.00;;;21.00;99.90;;;;;;20534443;28;20094;-45
2021/08/24 11:16:39;;;;;;;1.13;0.60;;;20.90;99.90;;;;;;20496278;28;20043;-45
2021/08/24 11:26:58;;;;;;;1.73;0.70;;;20.80;99.90;;;;;;20512841;28;20054;-45
2021/08/24 11:37:09;;;;;;;2.17;0.93;;;21.00;99.90;;;;;;20538289;28;20386;-45
2021/08/24 11:47:15;;;;;;;1.50;0.65;;;21.30;99.90;;;;;;20535941;28;20054;-45
2021/08/24 11:57:43;;;;;;;2.90;0.97;;;21.60;99.90;;;;;;20533556;28;20047;-45
2021/08/24 12:07:55;;;;;;;1.37;0.60;;;21.80;99.90;;;;;;20496384;28;20043;-45
2021/08/24 12:18:11;;;;;;;1.35;0.50;;;21.80;99.90;;;;;;20533131;28;20099;-45
2021/08/24 12:28:15;;;;;;;1.55;0.80;;;21.90;99.90;;;;;;20549814;28;20466;-45
2021/08/24 12:38:42;;;;;;;3.33;0.60;;;21.80;99.90;;;;;;20477742;28;20065;-45
2021/08/24 12:49:16;;;;;;;1.70;0.53;;;22.10;99.90;;;;;;20454509;28;20219;-45
2021/08/24 12:59:30;;;;;;;1.42;0.77;;;21.80;99.90;;;;;;20434393;28;20070;-45
2021/08/24 13:09:36;;;;;;;1.13;0.43;;;21.80;99.90;;;;;;20438363;28;20409;-45
2021/08/24 13:19:38;;;;;;;1.20;0.50;;;21.60;99.90;;;;;;20434053;28;20048;-45
2021/08/24 13:29:42;;;;;;;1.85;0.45;;;21.70;99.90;;;;;;20431801;28;20058;-45
2021/08/24 13:39:55;;;;;;;1.67;0.50;;;22.20;99.90;;;;;;20465411;28;20050;-45
2021/08/24 13:49:59;;;;;;;1.55;0.52;;;22.10;99.90;;;;;;20497439;28;20039;-46
2021/08/24 14:00:06;;;;;;;1.45;0.75;;;21.90;99.90;;;;;;20497831;28;20059;-46
2021/08/24 14:10:29;;;;;;;4.83;0.77;;;22.50;99.90;;;;;;20479251;28;20487;-46
2021/08/24 14:20:39;;;;;;;1.20;0.50;;;22.60;99.90;;;;;;20478252;28;20047;-45
2021/08/24 14:30:42;;;;;;;1.45;0.50;;;22.40;99.90;;;;;;20499529;28;20043;-46
2021/08/24 14:40:44;;;;;;;4.30;0.77;;;21.90;99.90;;;;;;20512368;28;20141;-45
2021/08/24 14:50:51;;;;;;;1.85;0.60;;;21.90;99.90;;;;;;20539523;28;20039;-45
2021/08/24 15:00:52;;;;;;;1.65;0.60;;;22.00;99.90;;;;;;20518806;28;20061;-45
2021/08/24 15:11:12;;;;;;;1.05;0.30;;;21.60;99.90;;;;;;20527309;28;20051;-45
2021/08/24 15:21:24;;;;;;;1.05;0.43;;;21.20;99.90;;;;;;20520556;28;20077;-45
2021/08/24 15:31:25;;;;;;;1.27;0.60;;;21.30;99.90;;;;;;20527166;28;20039;-45
2021/08/24 15:41:33;;;;;;;1.55;0.65;;;21.20;99.90;;;;;;20470255;28;20039;-45
2021/08/24 15:51:34;;;;;;;1.58;0.40;;;21.20;99.90;;;;;;20427653;28;20047;-45
2021/08/24 16:01:37;;;;;;;1.63;0.60;;;21.00;99.90;;;;;;20435806;28;20519;-45
2021/08/24 16:11:43;;;;;;;2.15;0.47;;;20.80;99.90;;;;;;20422205;28;20056;-45
2021/08/24 16:21:47;;;;;;;1.38;0.68;;;20.80;99.90;;;;;;20402149;28;20048;-45
2021/08/24 16:31:48;;;;;;;1.60;0.80;;;20.70;99.90;;;;;;20425931;28;20830;-45
2021/08/24 16:41:49;;;;;;;6.97;0.70;;;20.40;99.90;;;;;;20510571;28;20043;-45
2021/08/24 16:51:50;;;;;;;1.20;0.80;;;20.30;99.90;;;;;;20508049;28;20039;-45
2021/08/24 17:01:51;;;;;;;1.10;0.47;;;20.10;99.90;;;;;;20525279;28;20042;-45
2021/08/24 17:11:52;;;;;;;1.17;0.50;;;20.20;99.90;;;;;;20497026;28;20036;-45
2021/08/24 17:21:54;;;;;;;1.33;0.57;;;20.00;99.90;;;;;;20540656;28;20050;-45
2021/08/24 17:31:55;;;;;;;1.35;0.55;;;19.80;99.90;;;;;;20526629;28;20035;-45
2021/08/24 17:41:57;;;;;;;4.50;0.65;;;19.70;99.90;;;;;;20542980;28;20073;-45
2021/08/24 17:51:58;;;;;;;1.85;0.60;;;19.70;99.90;;;;;;20548234;28;20034;-45
2021/08/24 18:01:59;;;;;;;1.90;0.93;;;19.70;99.90;;;;;;20554293;28;20042;-45
2021/08/24 18:12:02;;;;;;;1.48;0.60;;;19.50;99.90;;;;;;20554125;28;20047;-45
2021/08/24 18:22:05;;;;;;;1.42;0.80;;;19.40;99.90;;;;;;20545064;28;20046;-45
2021/08/24 18:32:07;;;;;;;2.28;0.70;;;19.20;99.90;;;;;;20550136;28;20039;-45
2021/08/24 18:42:08;;;;;;;1.85;1.02;;;19.10;99.90;;;;;;20520063;28;20054;-45
2021/08/24 18:52:10;;;;;;;1.80;0.82;;;19.00;99.90;;;;;;20508904;28;20034;-45
2021/08/24 19:02:11;;;;;;;1.40;0.70;;;18.90;99.90;;;;;;20514870;28;20053;-45
2021/08/24 19:12:12;;;;;;;2.17;0.75;;;18.80;99.90;;;;;;20514507;28;20039;-45
2021/08/24 19:22:15;;;;;;;3.60;1.38;;;18.70;99.90;;;;;;20499016;28;20050;-45
2021/08/24 19:32:16;;;;;;;1.27;0.50;;;18.60;99.90;;;;;;20525896;28;20043;-45
2021/08/24 19:42:17;;;;;;;2.45;1.15;;;18.60;99.90;;;;;;20466269;28;20491;-45
2021/08/24 19:52:19;;;;;;;2.30;1.15;;;18.40;99.90;;;;;;20455604;28;20071;-45
2021/08/24 20:02:20;;;;;;;3.17;1.27;;;18.30;99.90;;;;;;20463440;28;20046;-45
2021/08/24 20:12:25;;;;;;;1.70;0.90;;;18.20;99.90;;;;;;20448551;28;20043;-45
2021/08/24 20:22:29;;;;;;;2.72;1.38;;;18.10;99.90;;;;;;20440997;28;20047;-45
2021/08/24 20:32:30;;;;;;;2.95;1.33;;;18.10;99.90;;;;;;20456635;28;20048;-45
2021/08/24 20:42:31;;;;;;;1.80;0.93;;;18.00;99.90;;;;;;20470797;28;20136;-45
2021/08/24 20:52:32;;;;;;;3.13;1.20;;;17.90;99.90;;;;;;20489068;28;20043;-45
2021/08/24 21:02:33;;;;;;;2.35;1.10;;;17.80;99.90;;;;;;20487422;28;21455;-44
2021/08/24 21:12:35;;;;;;;2.20;1.20;;;17.80;99.90;;;;;;20494665;28;20046;-45
2021/08/24 21:22:37;;;;;;;5.78;2.15;;;17.60;99.90;;;;;;20485058;28;20069;-45
2021/08/24 21:32:39;;;;;;;5.00;1.50;;;17.50;99.90;;;;;;20481242;28;20051;-45
2021/08/24 21:42:40;;;;;;;2.70;1.65;;;17.40;99.90;;;;;;20532994;28;20398;-45
2021/08/24 21:52:42;;;;;;;3.67;1.20;;;17.40;99.90;;;;;;20518007;28;20050;-45
2021/08/24 22:02:43;;;;;;;4.55;1.65;;;17.20;99.90;;;;;;20513561;28;20057;-45
2021/08/24 22:12:45;;;;;;;4.15;1.70;;;17.20;99.90;;;;;;20524954;28;20042;-44
2021/08/24 22:22:46;;;;;;;3.13;1.30;;;17.00;99.90;;;;;;20516302;28;20058;-45
2021/08/24 22:33:01;;;;;;;2.70;1.45;;;16.90;99.90;;;;;;20521166;28;20036;-45
2021/08/24 22:43:02;;;;;;;4.65;1.60;;;16.80;99.90;;;;;;20476520;28;1152996;-45
2021/08/24 22:53:03;;;;;;;3.63;2.00;;;16.70;99.90;;;;;;20510547;28;20379;-44
2021/08/24 23:03:05;;;;;;;3.85;1.83;;;16.60;99.90;;;;;;20516697;28;20051;-44
2021/08/24 23:13:07;;;;;;;4.93;2.60;;;16.40;99.90;;;;;;20517633;28;20050;-44
2021/08/24 23:23:09;;;;;;;4.22;2.20;;;16.30;99.90;;;;;;20521940;28;20490;-44
2021/08/24 23:33:10;;;;;;;4.45;2.40;;;16.10;99.90;;;;;;20535557;28;20057;-44
2021/08/24 23:43:11;;;;;;;3.95;2.00;;;16.10;99.90;;;;;;20501942;28;20032;-44
2021/08/24 23:53:12;;;;;;;4.00;2.08;;;15.90;99.90;;;;;;20534364;28;20051;-45
